Terminal Aerodrome Forecast
Issued by NWS

Current Version | Previous Version | Graphics & Text | Print | Product List | Glossary On
Versions: 1 2 3 4 5 6 7 8 9 10 11 12 13 14 15 16 17 18 19 20 21
000
FTUS41 KILN 300500
TAFLCK
TAF
KLCK 300527Z 3006/3106 18005KT P6SM FEW050 BKN150
     FM301500 21012KT P6SM BKN040
     FM301900 21012G20KT P6SM VCTS BKN050CB
     FM302200 20012G20KT P6SM BKN050
     FM310100 19008KT P6SM SCT050=

USA.gov is the U.S. government's official web portal to all federal, state and local government web resources and services.